createdAt,value
2022-09-28T00:00:33.031Z,12.02
2022-09-28T00:03:05.882Z,11.94
2022-09-28T00:05:35.411Z,11.82
2022-09-28T00:08:04.821Z,11.85
2022-09-28T00:10:34.259Z,11.90
2022-09-28T00:13:04.201Z,11.94
2022-09-28T00:15:33.657Z,11.98
2022-09-28T00:18:05.918Z,11.95
2022-09-28T00:20:35.410Z,11.97
2022-09-28T00:23:04.857Z,11.75
2022-09-28T00:25:34.401Z,11.63
2022-09-28T00:28:05.237Z,11.72
2022-09-28T00:30:34.737Z,11.75
2022-09-28T00:33:06.909Z,11.73
2022-09-28T00:35:36.474Z,11.62
2022-09-28T00:38:05.953Z,11.69
2022-09-28T00:40:35.479Z,11.71
2022-09-28T00:43:20.294Z,11.70
2022-09-28T00:45:50.299Z,11.81
2022-09-28T00:48:22.432Z,11.91
2022-09-28T00:50:51.859Z,11.93
2022-09-28T00:53:21.899Z,11.86
2022-09-28T00:55:52.409Z,11.71
2022-09-28T00:58:24.115Z,11.79
2022-09-28T01:00:53.566Z,11.85
2022-09-28T01:03:25.691Z,11.92
2022-09-28T01:05:55.397Z,12.01
2022-09-28T01:08:24.870Z,12.06
2022-09-28T01:10:54.299Z,12.07
2022-09-28T01:13:23.778Z,12.08
2022-09-28T01:16:03.791Z,12.14
2022-09-28T01:18:37.451Z,12.18
2022-09-28T01:21:07.249Z,12.16
2022-09-28T01:24:13.723Z,12.16
2022-09-28T01:27:01.989Z,12.23
2022-09-28T01:29:41.836Z,12.23
2022-09-28T01:32:17.803Z,12.21
2022-09-28T01:34:50.036Z,12.23
2022-09-28T01:37:19.633Z,12.21
2022-09-28T01:39:49.906Z,12.21
2022-09-28T01:42:24.595Z,12.10
2022-09-28T01:44:55.041Z,12.06
2022-09-28T01:47:25.856Z,11.74
2022-09-28T01:49:57.390Z,11.74
2022-09-28T01:52:28.147Z,11.94
2022-09-28T01:54:59.383Z,12.08
2022-09-28T01:57:33.201Z,12.18
2022-09-28T02:00:06.181Z,12.26
2022-09-28T02:02:36.890Z,12.25
2022-09-28T02:05:08.514Z,12.24
2022-09-28T02:07:42.532Z,12.14
2022-09-28T02:10:13.871Z,12.03
2022-09-28T02:12:47.270Z,12.02
2022-09-28T02:15:19.988Z,12.02
2022-09-28T02:17:49.554Z,12.02
2022-09-28T02:20:19.151Z,12.04
2022-09-28T02:22:50.415Z,12.04
2022-09-28T02:25:24.011Z,12.03
2022-09-28T02:27:58.125Z,11.97
2022-09-28T02:30:27.597Z,11.91
2022-09-28T02:32:58.433Z,11.88
2022-09-28T02:35:27.872Z,11.81
2022-09-28T02:37:57.578Z,11.77
2022-09-28T02:40:28.209Z,11.77
2022-09-28T02:43:04.963Z,11.76
2022-09-28T02:45:40.955Z,11.75
2022-09-28T02:48:35.894Z,11.63
2022-09-28T02:51:11.993Z,11.63
2022-09-28T02:53:58.577Z,11.58
2022-09-28T02:56:39.855Z,11.44
2022-09-28T02:59:12.982Z,11.39
2022-09-28T03:01:44.957Z,11.41
2022-09-28T03:04:16.094Z,11.29
2022-09-28T03:06:47.688Z,11.22
2022-09-28T03:09:20.420Z,11.33
2022-09-28T03:11:50.692Z,11.38
2022-09-28T03:14:22.925Z,11.31
2022-09-28T03:16:52.371Z,11.35
2022-09-28T03:19:22.709Z,11.36
2022-09-28T03:21:52.152Z,11.39
2022-09-28T03:24:21.562Z,11.41
2022-09-28T03:26:50.999Z,11.36
2022-09-28T03:29:23.111Z,11.31
2022-09-28T03:31:52.650Z,11.23
2022-09-28T03:34:22.124Z,11.15
2022-09-28T03:36:51.572Z,11.11
2022-09-28T03:39:20.989Z,11.11
2022-09-28T03:41:50.410Z,11.12
2022-09-28T03:44:19.915Z,11.12
2022-09-28T03:46:51.920Z,11.11
2022-09-28T03:49:21.321Z,11.11
2022-09-28T03:51:50.758Z,11.12
2022-09-28T03:54:20.193Z,11.04
2022-09-28T03:56:50.244Z,10.90
2022-09-28T03:59:19.867Z,10.83
2022-09-28T04:01:54.090Z,10.82
2022-09-28T04:04:23.579Z,10.81
2022-09-28T04:06:53.475Z,10.72
2022-09-28T04:09:23.165Z,10.73
2022-09-28T04:12:03.425Z,10.78
2022-09-28T04:14:33.679Z,10.86
2022-09-28T04:17:07.263Z,10.90
2022-09-28T04:19:36.718Z,10.94
2022-09-28T04:22:06.161Z,11.01
2022-09-28T04:24:35.737Z,11.07
2022-09-28T04:27:17.462Z,11.09
2022-09-28T04:29:46.885Z,11.17
2022-09-28T04:32:18.900Z,11.22
2022-09-28T04:34:48.312Z,11.23
2022-09-28T04:37:17.738Z,11.30
2022-09-28T04:39:48.376Z,11.22
2022-09-28T04:42:17.920Z,11.20
2022-09-28T04:44:47.353Z,11.19
2022-09-28T04:47:19.399Z,11.17
2022-09-28T04:49:48.813Z,11.10
2022-09-28T04:52:18.777Z,11.08
2022-09-28T04:54:48.270Z,11.05
2022-09-28T04:57:17.687Z,11.04
2022-09-28T04:59:47.119Z,11.01
2022-09-28T05:02:19.186Z,10.91
2022-09-28T05:04:48.633Z,10.85
2022-09-28T05:07:18.069Z,10.81
2022-09-28T05:09:47.487Z,10.71
2022-09-28T05:12:16.909Z,10.71
2022-09-28T05:14:46.314Z,10.74
2022-09-28T05:17:15.717Z,10.72
2022-09-28T05:19:47.832Z,10.70
2022-09-28T05:22:17.278Z,10.64
2022-09-28T05:24:47.242Z,10.64
2022-09-28T05:27:16.683Z,10.59
2022-09-28T05:29:46.080Z,10.58
2022-09-28T05:32:16.854Z,10.55
2022-09-28T05:34:48.862Z,10.57
2022-09-28T05:37:18.291Z,10.59
2022-09-28T05:39:47.682Z,10.61
2022-09-28T05:42:17.098Z,10.62
2022-09-28T05:44:46.550Z,10.64
2022-09-28T05:47:16.044Z,10.66
2022-09-28T05:49:48.008Z,10.75
2022-09-28T05:52:17.430Z,10.85
2022-09-28T05:54:46.878Z,10.88
2022-09-28T05:57:16.405Z,10.85
2022-09-28T05:59:45.965Z,10.91
2022-09-28T06:02:15.385Z,10.92
2022-09-28T06:04:45.117Z,10.98
2022-09-28T06:07:17.130Z,11.04
2022-09-28T06:09:46.618Z,11.07
2022-09-28T06:12:16.038Z,11.09
2022-09-28T06:14:45.465Z,11.15
2022-09-28T06:17:14.867Z,11.23
2022-09-28T06:19:44.278Z,11.33
2022-09-28T06:22:13.753Z,11.36
2022-09-28T06:24:45.751Z,11.40
2022-09-28T06:27:15.163Z,11.49
2022-09-28T06:29:44.697Z,11.61
2022-09-28T06:32:14.245Z,11.77
2022-09-28T06:34:43.667Z,11.96
2022-09-28T06:37:13.108Z,12.09
2022-09-28T06:39:45.091Z,12.19
2022-09-28T06:42:16.113Z,12.24
2022-09-28T06:44:47.103Z,12.40
2022-09-28T06:47:17.682Z,12.58
2022-09-28T06:49:47.799Z,12.64
2022-09-28T06:52:17.206Z,12.79
2022-09-28T06:54:49.205Z,12.91
2022-09-28T06:57:18.635Z,13.09
2022-09-28T06:59:48.873Z,13.17
2022-09-28T07:02:18.364Z,13.30
2022-09-28T07:04:47.825Z,13.43
2022-09-28T07:07:17.287Z,13.53
2022-09-28T07:09:52.356Z,13.71
2022-09-28T07:12:24.599Z,13.84
2022-09-28T07:14:56.354Z,13.98
2022-09-28T07:17:25.848Z,13.84
2022-09-28T07:20:00.043Z,14.01
2022-09-28T07:22:43.127Z,14.17
2022-09-28T07:25:15.770Z,14.35
2022-09-28T07:27:45.163Z,14.65
2022-09-28T07:30:15.666Z,14.82
2022-09-28T07:32:45.086Z,14.82
2022-09-28T07:35:14.491Z,14.99
2022-09-28T07:37:43.903Z,14.78
2022-09-28T07:40:28.534Z,14.73
2022-09-28T07:42:57.976Z,14.30
2022-09-28T07:45:28.759Z,14.29
2022-09-28T07:47:58.537Z,14.14
2022-09-28T07:50:28.000Z,13.95
2022-09-28T07:52:58.606Z,13.85
2022-09-28T07:55:30.670Z,13.78
2022-09-28T07:58:01.711Z,13.88
2022-09-28T08:00:34.262Z,13.80
2022-09-28T08:03:04.000Z,13.74
2022-09-28T08:05:35.914Z,13.83
2022-09-28T08:08:05.432Z,13.96
2022-09-28T08:10:37.594Z,14.05
2022-09-28T08:13:08.696Z,14.09
2022-09-28T08:15:38.745Z,14.13
2022-09-28T08:18:08.223Z,14.11
2022-09-28T08:20:51.601Z,14.06
2022-09-28T08:23:21.842Z,14.03
2022-09-28T08:25:54.700Z,13.92
2022-09-28T08:28:24.607Z,13.94
2022-09-28T08:30:54.452Z,14.52
2022-09-28T08:33:24.175Z,14.96
2022-09-28T08:35:58.498Z,15.40
2022-09-28T08:38:27.977Z,15.82
2022-09-28T08:41:06.608Z,16.17
2022-09-28T08:43:48.731Z,16.39
2022-09-28T08:46:20.789Z,16.44
2022-09-28T08:49:13.394Z,16.46
2022-09-28T08:51:46.799Z,16.36
2022-09-28T08:54:24.567Z,15.96
2022-09-28T08:56:58.062Z,15.90
2022-09-28T08:59:28.341Z,16.43
2022-09-28T09:01:58.812Z,17.04
2022-09-28T09:04:28.302Z,17.32
2022-09-28T09:07:14.890Z,16.96
2022-09-28T09:09:50.899Z,16.44
2022-09-28T09:12:27.011Z,16.10
2022-09-28T09:15:18.449Z,15.72
2022-09-28T09:17:52.827Z,15.42
2022-09-28T09:20:26.924Z,15.29
2022-09-28T09:23:01.485Z,14.97
2022-09-28T09:25:35.379Z,15.01
2022-09-28T09:28:40.280Z,15.03
2022-09-28T09:31:11.515Z,14.94
2022-09-28T09:33:58.296Z,15.07
2022-09-28T09:36:37.582Z,15.67
2022-09-28T09:39:15.234Z,16.12
2022-09-28T09:41:52.366Z,16.47
2022-09-28T09:44:44.035Z,16.48
2022-09-28T09:47:15.059Z,16.72
2022-09-28T09:49:46.473Z,16.72
2022-09-28T09:52:17.576Z,16.62
2022-09-28T09:54:47.287Z,16.58
2022-09-28T09:57:18.232Z,16.40
2022-09-28T09:59:50.209Z,16.28
2022-09-28T10:02:25.289Z,16.18
2022-09-28T10:04:57.121Z,16.07
2022-09-28T10:07:27.759Z,15.80
2022-09-28T10:09:58.930Z,15.69
2022-09-28T10:12:28.173Z,15.56
2022-09-28T10:15:00.143Z,15.46
2022-09-28T10:17:29.571Z,15.49
2022-09-28T10:19:59.462Z,15.52
2022-09-28T10:22:29.741Z,15.42
2022-09-28T10:25:00.061Z,15.33
2022-09-28T10:27:31.411Z,15.25
2022-09-28T10:30:04.842Z,15.32
2022-09-28T10:32:40.162Z,15.40
2022-09-28T10:35:27.082Z,15.54
2022-09-28T10:37:59.360Z,15.60
2022-09-28T10:40:32.024Z,15.72
2022-09-28T10:43:05.539Z,15.84
2022-09-28T10:45:38.662Z,15.95
2022-09-28T10:48:09.087Z,16.03
2022-09-28T10:50:39.396Z,16.11
2022-09-28T10:53:19.496Z,16.05
2022-09-28T10:55:59.582Z,15.96
2022-09-28T10:58:31.558Z,16.05
2022-09-28T11:01:06.263Z,16.44
2022-09-28T11:03:35.779Z,16.69
2022-09-28T11:06:06.925Z,17.03
2022-09-28T11:08:37.029Z,17.66
2022-09-28T11:11:10.163Z,18.05
2022-09-28T11:13:44.719Z,18.14
2022-09-28T11:16:26.547Z,17.84
2022-09-28T11:18:56.006Z,17.53
2022-09-28T11:21:27.319Z,17.09
2022-09-28T11:24:06.004Z,16.81
2022-09-28T11:26:43.511Z,16.88
2022-09-28T11:29:27.489Z,17.08
2022-09-28T11:32:03.255Z,17.23
2022-09-28T11:34:57.449Z,17.43
2022-09-28T11:37:52.689Z,17.50
2022-09-28T11:40:32.561Z,17.59
2022-09-28T11:43:09.118Z,17.59
2022-09-28T11:45:46.222Z,17.43
2022-09-28T11:48:18.746Z,17.09
2022-09-28T11:50:49.738Z,16.92
2022-09-28T11:53:23.370Z,16.82
2022-09-28T11:55:55.962Z,16.75
2022-09-28T11:58:28.805Z,16.88
2022-09-28T12:01:02.104Z,16.99
2022-09-28T12:03:38.777Z,17.10
2022-09-28T12:06:09.233Z,17.10
2022-09-28T12:08:41.220Z,17.03
2022-09-28T12:11:14.097Z,17.02
2022-09-28T12:13:45.007Z,17.03
2022-09-28T12:16:45.314Z,17.10
2022-09-28T12:19:09.808Z,17.16
2022-09-28T12:21:40.319Z,17.16
2022-09-28T12:24:15.829Z,17.30
2022-09-28T12:26:47.067Z,17.45
2022-09-28T12:29:17.614Z,17.53
2022-09-28T12:31:58.635Z,17.65
2022-09-28T12:34:30.609Z,17.61
2022-09-28T12:37:07.975Z,17.46
2022-09-28T12:39:57.384Z,17.25
2022-09-28T12:42:47.379Z,17.10
2022-09-28T12:45:27.908Z,17.18
2022-09-28T12:48:28.660Z,17.05
2022-09-28T12:51:04.871Z,17.14
2022-09-28T12:53:47.324Z,17.25
2022-09-28T12:56:21.553Z,17.43
2022-09-28T12:59:01.039Z,17.61
2022-09-28T13:01:46.571Z,17.68
2022-09-28T13:04:24.375Z,17.73
2022-09-28T13:06:59.834Z,17.77
2022-09-28T13:09:29.382Z,17.90
2022-09-28T13:12:18.338Z,18.00
2022-09-28T13:15:11.643Z,18.04
2022-09-28T13:17:45.334Z,17.96
2022-09-28T13:20:28.008Z,17.78
2022-09-28T13:23:05.898Z,17.78
2022-09-28T13:25:36.389Z,17.79
2022-09-28T13:28:06.809Z,17.79
2022-09-28T13:30:36.777Z,17.60
2022-09-28T13:33:07.058Z,17.38
2022-09-28T13:35:36.458Z,17.26
2022-09-28T13:38:47.587Z,17.41
2022-09-28T13:41:29.181Z,17.56
2022-09-28T13:44:23.869Z,17.59
2022-09-28T13:47:00.880Z,17.61
2022-09-28T13:49:34.273Z,17.54
2022-09-28T13:52:06.894Z,17.47
2022-09-28T13:54:55.141Z,17.57
2022-09-28T13:57:29.033Z,17.56
2022-09-28T14:00:04.405Z,17.49
2022-09-28T14:02:36.603Z,17.48
2022-09-28T14:05:06.949Z,17.49
2022-09-28T14:08:01.389Z,17.48
2022-09-28T14:10:49.443Z,17.46
2022-09-28T14:13:48.746Z,17.39
2022-09-28T14:16:27.552Z,17.44
2022-09-28T14:18:58.054Z,17.43
2022-09-28T14:21:58.328Z,17.36
2022-09-28T14:24:33.167Z,17.29
2022-09-28T14:27:09.712Z,17.30
2022-09-28T14:29:39.572Z,17.37
2022-09-28T14:32:24.692Z,17.28
2022-09-28T14:35:00.958Z,17.28
2022-09-28T14:37:46.295Z,17.30
2022-09-28T14:40:32.771Z,17.33
2022-09-28T14:43:37.709Z,17.34
2022-09-28T14:46:30.090Z,17.35
2022-09-28T14:49:04.158Z,17.36
2022-09-28T14:52:09.318Z,17.43
2022-09-28T14:54:52.069Z,17.56
2022-09-28T14:57:23.822Z,17.49
2022-09-28T14:59:54.027Z,17.48
2022-09-28T15:02:27.675Z,17.46
2022-09-28T15:05:02.555Z,17.46
2022-09-28T15:07:35.753Z,17.39
2022-09-28T15:10:07.222Z,17.38
2022-09-28T15:12:36.645Z,17.35
2022-09-28T15:15:07.788Z,17.36
2022-09-28T15:17:40.003Z,17.39
2022-09-28T15:20:23.787Z,17.38
2022-09-28T15:22:54.913Z,17.22
2022-09-28T15:25:25.008Z,17.24
2022-09-28T15:27:55.322Z,17.28
2022-09-28T15:30:27.506Z,17.27
2022-09-28T15:33:17.020Z,17.19
2022-09-28T15:35:48.190Z,17.13
2022-09-28T15:38:17.621Z,17.11
2022-09-28T15:40:47.695Z,17.14
2022-09-28T15:43:27.050Z,17.11
2022-09-28T15:46:02.960Z,17.01
2022-09-28T15:48:33.605Z,17.06
2022-09-28T15:51:11.050Z,17.01
2022-09-28T15:53:44.734Z,17.03
2022-09-28T15:56:14.131Z,17.00
2022-09-28T15:58:43.537Z,17.04
2022-09-28T16:01:39.769Z,17.02
2022-09-28T16:04:48.215Z,16.97
2022-09-28T16:07:26.271Z,16.93
2022-09-28T16:10:00.378Z,16.89
2022-09-28T16:12:33.309Z,16.92
2022-09-28T16:15:06.694Z,16.94
2022-09-28T16:17:38.059Z,16.91
2022-09-28T16:20:19.959Z,16.88
2022-09-28T16:22:53.672Z,16.92
2022-09-28T16:25:25.654Z,16.93
2022-09-28T16:27:55.532Z,16.92
2022-09-28T16:30:25.523Z,16.89
2022-09-28T16:32:56.506Z,16.86
2022-09-28T16:35:33.033Z,16.80
2022-09-28T16:38:13.786Z,16.75
2022-09-28T16:40:43.582Z,16.70
2022-09-28T16:43:26.622Z,16.67
2022-09-28T16:45:56.678Z,16.67
2022-09-28T16:48:26.975Z,16.65
2022-09-28T16:50:56.383Z,16.64
2022-09-28T16:53:40.941Z,16.60
2022-09-28T16:56:10.446Z,16.58
2022-09-28T16:58:39.926Z,16.57
2022-09-28T17:01:10.275Z,16.54
2022-09-28T17:03:42.348Z,16.53
2022-09-28T17:06:12.308Z,16.50
2022-09-28T17:08:44.759Z,16.51
2022-09-28T17:11:22.557Z,16.46
2022-09-28T17:13:58.850Z,16.43
2022-09-28T17:17:02.312Z,16.38
2022-09-28T17:19:20.809Z,16.39
2022-09-28T17:21:50.555Z,16.38
2022-09-28T17:24:22.777Z,16.35
2022-09-28T17:26:52.556Z,16.32
2022-09-28T17:29:22.326Z,16.27
2022-09-28T17:31:52.136Z,16.22
2022-09-28T17:34:21.584Z,16.19
2022-09-28T17:36:50.975Z,16.18
2022-09-28T17:39:25.002Z,16.15
2022-09-28T17:41:54.376Z,16.15
2022-09-28T17:44:23.846Z,16.13
2022-09-28T17:46:53.818Z,16.09
2022-09-28T17:49:23.231Z,16.07
2022-09-28T17:51:52.954Z,16.05
2022-09-28T17:54:25.968Z,16.03
2022-09-28T17:56:55.653Z,15.98
2022-09-28T17:59:26.738Z,15.94
2022-09-28T18:01:58.458Z,15.86
2022-09-28T18:04:50.632Z,15.82
2022-09-28T18:07:20.367Z,15.76
2022-09-28T18:09:56.710Z,15.72
2022-09-28T18:12:26.366Z,15.70
2022-09-28T18:14:55.871Z,15.71
2022-09-28T18:17:25.305Z,15.67
2022-09-28T18:19:54.747Z,15.69
2022-09-28T18:22:24.184Z,15.68
2022-09-28T18:24:56.212Z,15.68
2022-09-28T18:27:25.687Z,15.66
2022-09-28T18:29:55.122Z,15.65
2022-09-28T18:32:24.566Z,15.61
2022-09-28T18:34:53.988Z,15.60
2022-09-28T18:37:23.427Z,15.63
2022-09-28T18:39:52.889Z,15.62
2022-09-28T18:42:24.924Z,15.54
2022-09-28T18:44:54.335Z,15.51
2022-09-28T18:47:23.897Z,15.50
2022-09-28T18:49:53.333Z,15.48
2022-09-28T18:52:22.783Z,15.45
2022-09-28T18:54:52.215Z,15.41
2022-09-28T18:57:24.233Z,15.34
2022-09-28T18:59:53.653Z,15.30
2022-09-28T19:02:23.213Z,15.20
2022-09-28T19:04:52.806Z,15.16
2022-09-28T19:07:23.259Z,15.08
2022-09-28T19:09:53.377Z,15.06
2022-09-28T19:12:25.447Z,15.01
2022-09-28T19:14:54.875Z,14.95
2022-09-28T19:17:24.375Z,14.91
2022-09-28T19:19:53.919Z,14.94
2022-09-28T19:22:23.370Z,14.93
2022-09-28T19:24:52.846Z,14.92
2022-09-28T19:27:24.858Z,14.91
2022-09-28T19:29:54.307Z,14.87
2022-09-28T19:32:23.775Z,14.84
2022-09-28T19:34:53.237Z,14.80
2022-09-28T19:37:22.673Z,14.78
2022-09-28T19:39:52.157Z,14.75
2022-09-28T19:42:21.554Z,14.72
2022-09-28T19:44:53.689Z,14.70
2022-09-28T19:47:23.120Z,14.65
2022-09-28T19:49:52.821Z,14.60
2022-09-28T19:52:22.415Z,14.57
2022-09-28T19:54:54.461Z,14.53
2022-09-28T19:57:24.727Z,14.43
2022-09-28T20:00:02.001Z,14.39
2022-09-28T20:02:31.904Z,14.36
2022-09-28T20:05:01.411Z,14.33
2022-09-28T20:07:33.059Z,14.37
2022-09-28T20:10:02.663Z,14.33
2022-09-28T20:12:32.137Z,14.30
2022-09-28T20:15:05.203Z,14.24
2022-09-28T20:17:35.021Z,14.24
2022-09-28T20:20:05.003Z,14.17
2022-09-28T20:22:34.521Z,14.13
2022-09-28T20:25:04.021Z,14.05
2022-09-28T20:27:33.508Z,13.98
2022-09-28T20:30:05.848Z,13.91
2022-09-28T20:32:35.388Z,13.83
2022-09-28T20:35:04.863Z,13.78
2022-09-28T20:37:34.657Z,13.74
2022-09-28T20:40:04.601Z,13.69
2022-09-28T20:42:34.227Z,13.64
2022-09-28T20:45:06.567Z,13.57
2022-09-28T20:47:36.029Z,13.49
2022-09-28T20:50:06.536Z,13.46
2022-09-28T20:52:36.011Z,13.45
2022-09-28T20:55:05.514Z,13.44
2022-09-28T20:57:34.951Z,13.42
2022-09-28T21:00:08.063Z,13.41
2022-09-28T21:02:37.532Z,13.36
2022-09-28T21:05:07.935Z,13.33
2022-09-28T21:07:37.512Z,13.32
2022-09-28T21:10:09.199Z,13.25
2022-09-28T21:12:38.984Z,13.25
2022-09-28T21:15:12.309Z,13.25
2022-09-28T21:17:41.794Z,13.23
2022-09-28T21:20:12.012Z,13.18
2022-09-28T21:22:41.443Z,13.15
2022-09-28T21:25:12.058Z,13.14
2022-09-28T21:27:41.532Z,13.13
2022-09-28T21:30:15.236Z,13.14
2022-09-28T21:32:44.745Z,13.15
2022-09-28T21:35:16.905Z,13.09
2022-09-28T21:37:46.662Z,13.06
2022-09-28T21:40:16.365Z,13.04
2022-09-28T21:42:45.852Z,13.07
2022-09-28T21:45:18.041Z,13.05
2022-09-28T21:47:52.791Z,13.05
2022-09-28T21:50:26.002Z,13.01
2022-09-28T21:52:56.041Z,12.96
2022-09-28T21:55:25.971Z,12.86
2022-09-28T21:57:55.420Z,12.79
2022-09-28T22:00:27.506Z,12.71
2022-09-28T22:02:57.178Z,12.68
2022-09-28T22:05:28.172Z,12.68
2022-09-28T22:07:57.608Z,12.73
2022-09-28T22:10:27.070Z,12.69
2022-09-28T22:12:56.798Z,12.69
2022-09-28T22:15:28.881Z,12.71
2022-09-28T22:17:58.307Z,12.70
2022-09-28T22:20:27.963Z,12.67
2022-09-28T22:22:57.435Z,12.64
2022-09-28T22:25:26.941Z,12.64
2022-09-28T22:27:56.408Z,12.63
2022-09-28T22:30:28.541Z,12.54
2022-09-28T22:32:57.961Z,12.54
2022-09-28T22:35:27.548Z,12.58
2022-09-28T22:37:57.034Z,12.62
2022-09-28T22:40:26.560Z,12.58
2022-09-28T22:42:56.062Z,12.55
2022-09-28T22:45:28.134Z,12.43
2022-09-28T22:47:57.666Z,12.45
2022-09-28T22:50:27.117Z,12.42
2022-09-28T22:52:56.591Z,12.14
2022-09-28T22:55:26.179Z,11.85
2022-09-28T22:57:55.630Z,11.96
2022-09-28T23:00:27.674Z,12.13
2022-09-28T23:02:57.223Z,12.11
2022-09-28T23:05:26.734Z,12.16
2022-09-28T23:07:56.201Z,12.14
2022-09-28T23:10:25.716Z,12.17
2022-09-28T23:12:56.098Z,12.15
2022-09-28T23:15:28.997Z,12.14
2022-09-28T23:17:58.433Z,12.08
2022-09-28T23:20:27.929Z,12.06
2022-09-28T23:22:57.388Z,12.06
2022-09-28T23:25:26.975Z,12.04
2022-09-28T23:27:56.405Z,12.04
2022-09-28T23:30:28.832Z,11.96
2022-09-28T23:32:58.296Z,11.86
2022-09-28T23:35:27.851Z,11.82
2022-09-28T23:37:57.340Z,11.81
2022-09-28T23:40:26.837Z,11.82
2022-09-28T23:42:56.398Z,11.79
2022-09-28T23:45:28.452Z,11.80
2022-09-28T23:47:57.939Z,11.76
2022-09-28T23:50:27.500Z,11.73
2022-09-28T23:52:57.109Z,11.70
2022-09-28T23:55:26.699Z,11.66
2022-09-28T23:57:56.746Z,11.63
